Time;durP1;ratioP1;P1;durP2;ratioP2;P2;SDS_P1;SDS_P2;PMS_P1;PMS_P2;Temp;Humidity;BMP_temperature;BMP_pressure;BME280_temperature;BME280_humidity;BME280_pressure;Samples;Min_cycle;Max_cycle;Signal;HPM_P1;HPM_P2
2022/10/25 00:01:40;;;;;;;8.40;2.03;;;;;;;12.33;100.00;101037.19;5069082;28;20369;-63
2022/10/25 00:04:05;;;;;;;10.60;2.08;;;;;;;12.34;100.00;101044.19;5066197;28;20037;-63
2022/10/25 00:06:31;;;;;;;16.60;2.38;;;;;;;12.34;100.00;101044.19;5068495;28;20033;-62
2022/10/25 00:08:56;;;;;;;7.68;2.10;;;;;;;12.33;100.00;101042.41;5068233;28;20385;-63
2022/10/25 00:11:25;;;;;;;8.32;2.10;;;;;;;12.34;100.00;101044.19;5075945;28;20036;-62
2022/10/25 00:13:53;;;;;;;7.03;2.15;;;;;;;12.33;100.00;101058.00;5075661;28;20107;-63
2022/10/25 00:16:21;;;;;;;9.65;2.42;;;;;;;12.31;100.00;101055.34;5067666;28;20020;-62
2022/10/25 00:18:47;;;;;;;8.30;2.10;;;;;;;12.32;100.00;101059.69;5068474;28;20058;-63
2022/10/25 00:21:12;;;;;;;9.02;2.42;;;;;;;12.33;100.00;101060.59;5067841;28;20028;-62
2022/10/25 00:23:38;;;;;;;10.45;2.70;;;;;;;12.32;100.00;101057.09;5068260;28;20145;-63
2022/10/25 00:26:05;;;;;;;11.40;2.88;;;;;;;12.32;100.00;101054.50;5067193;28;20040;-63
2022/10/25 00:28:30;;;;;;;8.70;2.45;;;;;;;12.35;100.00;101061.53;5056163;28;20035;-63
2022/10/25 00:31:04;;;;;;;11.13;2.60;;;;;;;12.37;100.00;101057.25;5068129;28;20107;-63
2022/10/25 00:33:31;;;;;;;8.65;2.55;;;;;;;12.37;100.00;101059.84;5054354;28;20032;-63
2022/10/25 00:36:05;;;;;;;9.32;3.70;;;;;;;12.38;100.00;101061.59;5080943;28;20064;-63
2022/10/25 00:38:30;;;;;;;9.95;2.60;;;;;;;12.40;100.00;101065.13;5062814;28;20032;-63
2022/10/25 00:40:55;;;;;;;9.30;2.33;;;;;;;12.42;100.00;101073.84;5047513;28;20032;-63
2022/10/25 00:43:37;;;;;;;6.53;2.30;;;;;;;12.42;100.00;101067.75;5064845;28;20094;-63
2022/10/25 00:46:25;;;;;;;9.85;2.30;;;;;;;12.44;100.00;101061.78;5055870;28;20040;-63
2022/10/25 00:48:57;;;;;;;8.52;2.30;;;;;;;12.45;100.00;101073.94;5055165;28;20032;-63
2022/10/25 00:51:28;;;;;;;3.90;1.40;;;;;;;12.48;100.00;101075.75;5077427;28;20099;-62
2022/10/25 00:53:53;;;;;;;;;;;;;;;12.49;100.00;101080.97;5068049;28;20013;-63
2022/10/25 00:56:23;;;;;;;7.72;2.20;;;;;;;12.53;100.00;101075.88;5058121;28;20411;-63
2022/10/25 00:58:53;;;;;;;5.55;1.80;;;;;;;12.53;100.00;101071.56;5062989;28;20103;-62
2022/10/25 01:01:19;;;;;;;9.45;2.85;;;;;;;12.54;100.00;101075.91;5066399;28;20024;-63
2022/10/25 01:03:48;;;;;;;9.18;2.65;;;;;;;12.54;100.00;101067.25;5067570;28;20570;-64
2022/10/25 01:06:22;;;;;;;11.68;2.38;;;;;;;12.55;100.00;101069.00;5066923;28;20056;-63
2022/10/25 01:08:50;;;;;;;10.73;2.72;;;;;;;12.56;100.00;101073.34;5054195;28;20284;-63
2022/10/25 01:11:16;;;;;;;6.97;1.80;;;;;;;12.56;100.00;101070.75;5046443;28;20388;-63
2022/10/25 01:13:41;;;;;;;8.43;2.30;;;;;;;12.56;100.00;101075.94;5059348;28;20035;-63
2022/10/25 01:16:21;;;;;;;12.73;2.97;;;;;;;12.56;100.00;101076.84;5052735;28;20024;-63
2022/10/25 01:18:49;;;;;;;13.52;2.50;;;;;;;12.55;100.00;101069.88;5056071;28;20041;-62
2022/10/25 01:21:23;;;;;;;8.77;2.70;;;;;;;12.56;100.00;101083.75;5078881;28;20047;-63
2022/10/25 01:24:13;;;;;;;9.68;2.35;;;;;;;12.55;100.00;101082.88;5078536;28;20024;-63
2022/10/25 01:27:03;;;;;;;9.55;2.15;;;;;;;12.56;100.00;101083.75;5077243;28;20028;-63
2022/10/25 01:30:02;;;;;;;9.43;1.77;;;;;;;12.55;100.00;101088.06;5084056;28;20081;-63
2022/10/25 01:32:51;;;;;;;5.65;1.80;;;;;;;12.57;100.00;101093.31;5070911;28;20379;-63
2022/10/25 01:35:19;;;;;;;9.05;1.95;;;;;;;12.58;100.00;101092.47;5083828;28;20036;-62
2022/10/25 01:38:12;;;;;;;8.63;2.10;;;;;;;12.58;100.00;101097.66;5077101;28;20265;-63
2022/10/25 01:40:54;;;;;;;9.30;1.75;;;;;;;12.59;100.00;101087.31;5053520;28;20081;-63
2022/10/25 01:43:34;;;;;;;7.07;1.73;;;;;;;12.61;100.00;101105.53;5079662;28;20480;-63
2022/10/25 01:46:11;;;;;;;12.75;2.47;;;;;;;12.61;100.00;101105.53;5067098;28;20024;-63
2022/10/25 01:48:43;;;;;;;8.63;2.03;;;;;;;12.60;100.00;101098.59;5065113;28;20040;-63
2022/10/25 01:51:11;;;;;;;8.88;2.28;;;;;;;12.60;100.00;101102.09;5046605;28;20036;-63
2022/10/25 01:53:48;;;;;;;9.57;2.00;;;;;;;12.60;100.00;101103.78;5047287;28;20024;-63
2022/10/25 01:56:42;;;;;;;8.40;2.08;;;;;;;12.59;100.00;101102.03;5066974;28;20024;-62
2022/10/25 01:59:31;;;;;;;8.05;2.00;;;;;;;12.57;100.00;101099.41;5067935;28;20050;-62
2022/10/25 02:02:04;;;;;;;10.68;1.98;;;;;;;12.57;100.00;101104.59;5087057;28;20081;-63
2022/10/25 02:04:57;;;;;;;9.68;2.35;;;;;;;12.57;100.00;101104.59;5067173;28;20028;-63
2022/10/25 02:07:29;;;;;;;9.48;2.08;;;;;;;12.54;100.00;101101.91;5066520;28;20025;-63
2022/10/25 02:10:07;;;;;;;9.52;2.25;;;;;;;12.53;100.00;101101.84;5066589;28;20445;-63
2022/10/25 02:12:39;;;;;;;8.93;2.00;;;;;;;12.51;100.00;101108.72;5066414;28;20392;-63
2022/10/25 02:15:11;;;;;;;9.10;2.03;;;;;;;12.48;100.00;101115.59;5057834;28;20385;-63
2022/10/25 02:17:44;;;;;;;6.93;1.80;;;;;;;12.47;100.00;101119.03;5046385;28;20267;-63
2022/10/25 02:20:14;;;;;;;9.75;2.30;;;;;;;12.44;100.00;101118.97;5055653;28;20071;-62
2022/10/25 02:22:40;;;;;;;7.05;1.60;;;;;;;12.43;100.00;101122.38;5052279;28;20039;-63
2022/10/25 02:25:08;;;;;;;8.68;1.90;;;;;;;12.43;100.00;101119.78;5066701;28;20380;-63
2022/10/25 02:27:35;;;;;;;10.38;2.22;;;;;;;12.42;100.00;101118.03;5066802;28;20135;-62
2022/10/25 02:30:01;;;;;;;9.45;1.98;;;;;;;12.41;100.00;101108.44;5057228;28;20496;-63
2022/10/25 02:32:26;;;;;;;6.93;2.20;;;;;;;12.37;100.00;101122.22;5064263;28;20029;-63
2022/10/25 02:34:52;;;;;;;7.95;2.17;;;;;;;12.35;100.00;101116.97;5079138;28;20028;-62
2022/10/25 02:37:17;;;;;;;12.18;2.28;;;;;;;12.31;100.00;101119.41;5057854;28;20033;-62
2022/10/25 02:39:44;;;;;;;7.25;2.15;;;;;;;12.28;100.00;101121.94;5045838;28;20104;-63
2022/10/25 02:42:09;;;;;;;8.77;1.95;;;;;;;12.23;100.00;101122.69;5053677;28;20451;-63
2022/10/25 02:44:34;;;;;;;7.13;2.58;;;;;;;12.23;100.00;101124.41;5053092;28;20089;-63
2022/10/25 02:47:00;;;;;;;10.32;1.90;;;;;;;12.23;100.00;101127.00;5064892;28;20119;-63
2022/10/25 02:49:25;;;;;;;6.07;1.90;;;;;;;12.21;100.00;101133.88;5066256;28;20037;-62
2022/10/25 02:51:50;;;;;;;5.95;2.00;;;;;;;12.22;100.00;101135.63;5054236;28;20060;-63
2022/10/25 02:54:16;;;;;;;10.05;2.47;;;;;;;12.17;100.00;101127.72;5047746;28;20111;-63
2022/10/25 02:56:41;;;;;;;5.78;2.28;;;;;;;12.17;100.00;101137.22;5045436;28;20024;-62
2022/10/25 02:59:09;;;;;;;6.53;2.30;;;;;;;12.17;100.00;101130.31;5050243;28;20033;-63
2022/10/25 03:01:34;;;;;;;7.22;1.88;;;;;;;12.18;100.00;101136.38;5045031;28;20440;-63
2022/10/25 03:04:00;;;;;;;10.82;2.33;;;;;;;12.18;100.00;101136.38;5051906;28;20024;-63
2022/10/25 03:06:25;;;;;;;7.57;2.72;;;;;;;12.15;100.00;101136.28;5053987;28;20414;-63
2022/10/25 03:08:50;;;;;;;8.35;2.22;;;;;;;12.14;100.00;101135.41;5056484;28;20039;-63
2022/10/25 03:11:16;;;;;;;7.50;1.73;;;;;;;12.13;100.00;101131.94;5052042;28;20481;-63
2022/10/25 03:13:42;;;;;;;8.70;2.00;;;;;;;12.10;100.00;101133.56;5050288;28;20037;-62
2022/10/25 03:16:08;;;;;;;5.60;1.88;;;;;;;12.08;100.00;101142.97;5051712;28;20037;-62
2022/10/25 03:18:33;;;;;;;7.95;2.03;;;;;;;12.06;100.00;101152.44;5050992;28;20112;-63
2022/10/25 03:21:00;;;;;;;5.03;2.28;;;;;;;12.08;100.00;101155.97;5054205;28;20028;-63
2022/10/25 03:23:25;;;;;;;9.50;2.17;;;;;;;12.09;100.00;101157.72;5052343;28;20020;-63
2022/10/25 03:25:52;;;;;;;6.43;2.03;;;;;;;12.08;100.00;101156.84;5052193;28;20039;-63
2022/10/25 03:28:17;;;;;;;8.05;2.40;;;;;;;12.07;100.00;101151.63;5049782;28;20132;-63
2022/10/25 03:30:42;;;;;;;7.35;2.80;;;;;;;12.06;100.00;101162.81;5048098;28;20025;-63
2022/10/25 03:33:08;;;;;;;9.90;2.22;;;;;;;12.03;100.00;101162.72;5052390;28;20093;-63
2022/10/25 03:35:33;;;;;;;5.43;1.90;;;;;;;12.04;100.00;101172.28;5052251;28;20017;-63
2022/10/25 03:37:59;;;;;;;5.72;1.95;;;;;;;12.01;100.00;101166.19;5050354;28;20031;-63
2022/10/25 03:40:24;;;;;;;9.13;2.65;;;;;;;12.00;100.00;101174.78;5055587;28;20719;-63
2022/10/25 03:42:49;;;;;;;6.05;1.90;;;;;;;11.99;100.00;101175.63;5054145;28;20032;-63
2022/10/25 03:45:15;;;;;;;11.45;2.58;;;;;;;11.97;100.00;101181.59;5047670;28;20460;-63
2022/10/25 03:47:40;;;;;;;6.15;2.30;;;;;;;11.95;100.00;101189.34;5053000;28;20077;-62
2022/10/25 03:50:06;;;;;;;8.52;2.90;;;;;;;11.93;100.00;101192.72;5051558;28;20029;-63
2022/10/25 03:52:32;;;;;;;8.70;2.90;;;;;;;11.91;100.00;101187.47;5054890;28;20150;-63
2022/10/25 03:54:57;;;;;;;7.32;2.22;;;;;;;11.93;100.00;101187.50;5050039;28;20536;-63
2022/10/25 03:57:22;;;;;;;5.78;2.13;;;;;;;11.89;100.00;101187.41;5050168;28;20025;-63
2022/10/25 03:59:47;;;;;;;5.57;2.60;;;;;;;11.88;100.00;101189.97;5048371;28;20130;-63
2022/10/25 04:02:13;;;;;;;6.28;1.98;;;;;;;11.87;100.00;101189.09;5053064;28;20139;-63
2022/10/25 04:04:39;;;;;;;8.13;2.88;;;;;;;11.87;100.00;101194.28;5049878;28;20100;-63
2022/10/25 04:07:04;;;;;;;10.18;2.85;;;;;;;11.87;100.00;101196.88;5058273;28;20108;-62
2022/10/25 04:09:29;;;;;;;6.63;2.63;;;;;;;11.86;100.00;101194.22;5048624;28;20445;-63
2022/10/25 04:11:55;;;;;;;8.45;3.00;;;;;;;11.85;100.00;101208.06;5048716;28;20031;-63
2022/10/25 04:14:20;;;;;;;9.10;2.15;;;;;;;11.84;100.00;101207.16;5047520;28;20031;-63
2022/10/25 04:16:46;;;;;;;6.85;2.35;;;;;;;11.85;100.00;101197.69;5046964;28;20021;-63
2022/10/25 04:19:11;;;;;;;7.00;2.58;;;;;;;11.84;100.00;101201.97;5049823;28;20025;-63
2022/10/25 04:21:36;;;;;;;7.68;2.33;;;;;;;11.84;100.00;101193.28;5053063;28;20024;-63
2022/10/25 04:24:02;;;;;;;6.40;2.58;;;;;;;11.82;100.00;101189.78;5051452;28;20396;-63
2022/10/25 04:26:28;;;;;;;9.20;2.65;;;;;;;11.83;100.00;101201.94;5049158;28;20040;-63
2022/10/25 04:28:54;;;;;;;10.18;2.90;;;;;;;11.82;100.00;101206.22;5048227;28;20513;-63
2022/10/25 04:31:21;;;;;;;8.07;2.60;;;;;;;11.81;100.00;101213.97;5047580;28;20021;-63
2022/10/25 04:33:51;;;;;;;8.40;3.20;;;;;;;11.77;100.00;101211.28;5050714;28;20056;-62
2022/10/25 04:36:17;;;;;;;7.97;2.50;;;;;;;11.77;100.00;101208.69;5048736;28;20040;-63
2022/10/25 04:38:42;;;;;;;7.95;2.70;;;;;;;11.77;100.00;101208.69;5048615;28;20496;-62
2022/10/25 04:41:08;;;;;;;11.15;2.85;;;;;;;11.75;100.00;101215.53;5048211;28;20464;-63
2022/10/25 04:43:35;;;;;;;7.15;2.85;;;;;;;11.75;100.00;101212.94;5047154;28;20094;-63
2022/10/25 04:46:01;;;;;;;7.95;2.30;;;;;;;11.73;100.00;101213.72;5051018;28;20100;-63
2022/10/25 04:48:27;;;;;;;6.03;2.90;;;;;;;11.70;100.00;101211.91;5051121;28;20103;-63
2022/10/25 04:50:52;;;;;;;8.80;3.15;;;;;;;11.70;100.00;101216.22;5048606;28;20025;-63
2022/10/25 04:53:17;;;;;;;8.38;2.80;;;;;;;11.69;100.00;101220.53;5048815;28;20469;-62
2022/10/25 04:55:43;;;;;;;7.07;2.85;;;;;;;11.69;100.00;101215.34;5050627;28;20037;-62
2022/10/25 04:58:08;;;;;;;6.68;3.03;;;;;;;11.68;100.00;101218.75;5048662;28;20024;-63
2022/10/25 05:00:33;;;;;;;10.13;3.42;;;;;;;11.66;100.00;101223.00;5051338;28;20024;-63
2022/10/25 05:02:59;;;;;;;12.50;4.03;;;;;;;11.67;100.00;101221.31;5047378;28;20468;-63
2022/10/25 05:05:24;;;;;;;9.27;3.00;;;;;;;11.65;100.00;101218.66;5048201;28;20683;-63
2022/10/25 05:07:50;;;;;;;8.13;3.92;;;;;;;11.62;100.00;101223.75;5066916;28;20111;-63
2022/10/25 05:10:16;;;;;;;6.55;3.20;;;;;;;11.60;100.00;101221.09;5067317;28;20032;-63
2022/10/25 05:12:41;;;;;;;7.97;3.47;;;;;;;11.59;100.00;101219.34;5057867;28;20460;-62
2022/10/25 05:15:08;;;;;;;8.95;3.47;;;;;;;11.60;100.00;101225.41;5058144;28;20037;-63
2022/10/25 05:17:33;;;;;;;7.68;3.17;;;;;;;11.60;100.00;101241.84;5047312;28;20032;-63
2022/10/25 05:19:58;;;;;;;9.77;3.90;;;;;;;11.59;100.00;101237.50;5053619;28;20393;-63
2022/10/25 05:22:24;;;;;;;9.93;3.53;;;;;;;11.59;100.00;101244.41;5055986;28;20107;-63
2022/10/25 05:24:50;;;;;;;7.82;3.42;;;;;;;11.58;100.00;101240.06;5064405;28;20021;-63
2022/10/25 05:27:15;;;;;;;7.20;3.22;;;;;;;11.57;100.00;101239.16;5065952;28;20049;-62
2022/10/25 05:29:41;;;;;;;4.97;2.90;;;;;;;11.58;100.00;101247.84;5074012;28;20020;-63
2022/10/25 05:32:06;;;;;;;11.18;3.53;;;;;;;11.56;100.00;101254.69;5047662;28;20032;-63
2022/10/25 05:34:31;;;;;;;6.15;3.38;;;;;;;11.56;100.00;101252.09;5057914;28;20095;-63
2022/10/25 05:36:57;;;;;;;8.38;2.80;;;;;;;11.54;100.00;101252.03;5066728;28;20028;-62
2022/10/25 05:39:22;;;;;;;10.50;2.85;;;;;;;11.55;100.00;101258.97;5066364;28;20528;-63
2022/10/25 05:41:48;;;;;;;7.78;3.40;;;;;;;11.53;100.00;101260.66;5066721;28;20025;-63
2022/10/25 05:44:15;;;;;;;7.20;2.67;;;;;;;11.51;100.00;101258.00;5071254;28;20045;-63
2022/10/25 05:46:41;;;;;;;9.45;3.10;;;;;;;11.52;100.00;101269.25;5073023;28;20107;-62
2022/10/25 05:49:07;;;;;;;7.45;2.88;;;;;;;11.51;100.00;101268.38;5064674;28;20166;-63
2022/10/25 05:51:32;;;;;;;7.57;2.85;;;;;;;11.50;100.00;101277.00;5065196;28;20039;-63
2022/10/25 05:54:00;;;;;;;6.97;2.97;;;;;;;11.49;100.00;101269.16;5066758;28;20020;-63
2022/10/25 05:56:30;;;;;;;8.48;2.72;;;;;;;11.49;100.00;101275.25;5073407;28;20056;-63
2022/10/25 05:58:58;;;;;;;7.82;3.13;;;;;;;11.47;100.00;101271.72;5073302;28;20064;-63
2022/10/25 06:01:25;;;;;;;6.50;2.95;;;;;;;11.49;100.00;101277.84;5068221;28;20059;-63
2022/10/25 06:03:52;;;;;;;11.80;3.63;;;;;;;11.47;100.00;101282.09;5063930;28;20350;-63
2022/10/25 06:06:19;;;;;;;11.95;4.07;;;;;;;11.48;100.00;101286.44;5058069;28;20179;-63
2022/10/25 06:08:44;;;;;;;7.40;3.47;;;;;;;11.47;100.00;101291.59;5076409;28;20372;-63
2022/10/25 06:11:16;;;;;;;6.25;3.28;;;;;;;11.47;100.00;101296.78;5062651;28;20031;-64
2022/10/25 06:13:42;;;;;;;8.10;4.07;;;;;;;11.45;100.00;101296.72;5056404;28;20057;-64
2022/10/25 06:16:10;;;;;;;10.27;3.63;;;;;;;11.45;100.00;101294.13;5064744;28;20064;-65
2022/10/25 06:18:37;;;;;;;13.07;4.25;;;;;;;11.44;100.00;101300.13;5057944;28;20124;-64
2022/10/25 06:21:08;;;;;;;13.15;4.32;;;;;;;11.45;100.00;101308.81;5063444;28;20029;-65
2022/10/25 06:23:35;;;;;;;10.77;4.35;;;;;;;11.44;100.00;101302.72;5064631;28;20253;-65
2022/10/25 06:26:03;;;;;;;8.20;4.40;;;;;;;11.46;100.00;101311.44;5065708;28;20028;-65
2022/10/25 06:28:29;;;;;;;7.93;4.20;;;;;;;11.47;100.00;101307.16;5065033;28;20034;-65
2022/10/25 06:31:08;;;;;;;10.68;5.10;;;;;;;11.49;100.00;101314.19;5067860;28;20393;-65
2022/10/25 06:33:34;;;;;;;9.93;5.32;;;;;;;11.50;100.00;101320.22;5070615;28;20042;-65
2022/10/25 06:36:01;;;;;;;12.13;6.32;;;;;;;11.51;100.00;101324.63;5072426;28;20501;-66
2022/10/25 06:38:28;;;;;;;11.40;5.97;;;;;;;11.51;100.00;101330.66;5079084;28;20044;-66
2022/10/25 06:41:01;;;;;;;12.68;6.20;;;;;;;11.53;100.00;101331.59;5068718;28;20032;-65
2022/10/25 06:43:26;;;;;;;8.55;5.32;;;;;;;11.54;100.00;101340.28;5072107;28;20048;-65
2022/10/25 06:45:52;;;;;;;9.52;5.22;;;;;;;11.55;100.00;101343.78;5078930;28;20235;-65
2022/10/25 06:48:17;;;;;;;10.10;5.90;;;;;;;11.56;100.00;101337.75;5082663;28;20034;-65
2022/10/25 06:50:42;;;;;;;9.13;5.57;;;;;;;11.56;100.00;101337.75;5076603;28;20028;-65
2022/10/25 06:53:08;;;;;;;7.78;6.00;;;;;;;11.59;100.00;101337.84;5072883;28;20127;-66
2022/10/25 06:55:33;;;;;;;9.40;5.90;;;;;;;11.60;100.00;101339.63;5053128;28;20481;-66
2022/10/25 06:57:58;;;;;;;10.23;6.57;;;;;;;11.62;100.00;101338.84;5051248;28;20056;-65
2022/10/25 07:00:24;;;;;;;11.50;6.40;;;;;;;11.65;100.00;101338.97;5050646;28;20460;-65
2022/10/25 07:02:54;;;;;;;10.70;5.50;;;;;;;11.66;100.00;101345.03;5050460;28;20079;-66
2022/10/25 07:05:19;;;;;;;9.45;5.57;;;;;;;11.68;100.00;101351.16;5065722;28;20198;-65
2022/10/25 07:07:45;;;;;;;14.35;6.22;;;;;;;11.68;100.00;101353.75;5069407;28;20021;-65
2022/10/25 07:10:10;;;;;;;10.10;6.25;;;;;;;11.68;100.00;101358.94;5069644;28;20040;-65
2022/10/25 07:12:36;;;;;;;9.02;6.10;;;;;;;11.69;100.00;101358.13;5075936;28;20104;-65
2022/10/25 07:15:02;;;;;;;17.85;6.85;;;;;;;11.71;100.00;101365.97;5058258;28;20024;-65
2022/10/25 07:17:28;;;;;;;9.55;5.75;;;;;;;11.72;100.00;101366.03;5070362;28;20032;-65
2022/10/25 07:19:53;;;;;;;12.45;6.63;;;;;;;11.73;100.00;101362.59;5077317;28;20024;-65
2022/10/25 07:22:18;;;;;;;15.07;6.50;;;;;;;11.74;100.00;101366.97;5073886;28;20091;-65
2022/10/25 07:24:43;;;;;;;13.93;6.72;;;;;;;11.77;100.00;101374.84;5067871;28;20024;-65
2022/10/25 07:27:09;;;;;;;12.35;5.85;;;;;;;11.81;100.00;101380.16;5068730;28;20028;-64
2022/10/25 07:29:34;;;;;;;11.40;6.28;;;;;;;11.84;100.00;101381.16;5069212;28;20024;-65
2022/10/25 07:31:59;;;;;;;9.43;5.13;;;;;;;11.86;100.00;101379.50;5074859;28;20024;-65
2022/10/25 07:34:25;;;;;;;8.23;5.50;;;;;;;11.92;100.00;101385.72;5077369;28;20034;-64
2022/10/25 07:36:50;;;;;;;8.75;5.78;;;;;;;11.95;100.00;101388.44;5075082;28;20464;-64
2022/10/25 07:39:15;;;;;;;11.30;5.93;;;;;;;11.97;100.00;101392.84;5077494;28;20422;-65
2022/10/25 07:41:41;;;;;;;8.20;5.82;;;;;;;12.00;100.00;101392.06;5066263;28;20063;-64
2022/10/25 07:44:06;;;;;;;12.45;5.32;;;;;;;12.03;100.00;101391.31;5057986;28;20049;-65
2022/10/25 07:46:31;;;;;;;9.82;5.13;;;;;;;12.06;100.00;101394.00;5068416;28;20020;-65
2022/10/25 07:48:56;;;;;;;14.65;6.07;;;;;;;12.08;100.00;101385.44;5070689;28;20019;-65
2022/10/25 07:51:22;;;;;;;15.50;6.10;;;;;;;12.12;100.00;101402.06;5070336;28;20023;-65
2022/10/25 07:53:47;;;;;;;12.93;5.93;;;;;;;12.14;100.00;101397.81;5069100;28;20093;-65
2022/10/25 07:56:18;;;;;;;11.68;6.13;;;;;;;12.18;100.00;101397.06;5050489;28;20381;-65
2022/10/25 07:58:43;;;;;;;11.80;6.35;;;;;;;12.19;100.00;101395.34;5053116;28;20032;-65
2022/10/25 08:01:10;;;;;;;11.48;6.50;;;;;;;12.20;100.00;101398.00;5068367;28;20099;-65
2022/10/25 08:03:35;;;;;;;12.63;5.95;;;;;;;12.21;100.00;101401.47;5069202;28;20103;-65
2022/10/25 08:06:01;;;;;;;9.10;5.93;;;;;;;12.22;100.00;101404.13;5061843;28;20496;-65
2022/10/25 08:08:27;;;;;;;9.68;6.60;;;;;;;12.24;100.00;101406.78;5049496;28;20032;-65
2022/10/25 08:10:53;;;;;;;13.05;6.15;;;;;;;12.27;100.00;101411.22;5051687;28;20031;-65
2022/10/25 08:13:19;;;;;;;10.43;5.88;;;;;;;12.29;100.00;101419.91;5060178;28;20032;-64
2022/10/25 08:15:55;;;;;;;10.70;5.65;;;;;;;12.30;100.00;101419.09;5056209;28;20032;-65
2022/10/25 08:18:21;;;;;;;8.80;5.57;;;;;;;12.31;100.00;101418.25;5068788;28;20100;-65
2022/10/25 08:20:47;;;;;;;9.77;6.22;;;;;;;12.30;100.00;101417.41;5068009;28;20035;-65
2022/10/25 08:23:13;;;;;;;12.70;5.60;;;;;;;12.33;100.00;101420.09;5056436;28;20086;-65
2022/10/25 08:25:38;;;;;;;9.43;5.20;;;;;;;12.35;100.00;101415.84;5067572;28;20502;-65
2022/10/25 08:28:04;;;;;;;11.70;6.07;;;;;;;12.39;100.00;101427.22;5066190;28;20067;-65
2022/10/25 08:30:29;;;;;;;9.43;6.15;;;;;;;12.42;100.00;101419.50;5068262;28;20086;-65
2022/10/25 08:32:54;;;;;;;6.88;5.10;;;;;;;12.44;100.00;101420.47;5070188;28;20021;-66
2022/10/25 08:35:20;;;;;;;9.10;5.45;;;;;;;12.49;100.00;101428.41;5087574;28;20464;-65
2022/10/25 08:37:45;;;;;;;12.13;5.75;;;;;;;12.49;100.00;101418.88;5074231;28;20020;-65
2022/10/25 08:40:48;;;;;;;12.32;5.68;;;;;;;12.53;100.00;101429.38;5085095;28;20345;-65
2022/10/25 08:43:47;;;;;;;8.70;5.20;;;;;;;12.55;100.00;101422.53;5086262;28;20040;-65
2022/10/25 08:46:20;;;;;;;13.15;5.13;;;;;;;12.55;100.00;101428.63;5073457;28;20488;-65
2022/10/25 08:48:51;;;;;;;11.40;5.18;;;;;;;12.57;100.00;101426.97;5075255;28;20258;-65
2022/10/25 08:51:28;;;;;;;11.48;5.70;;;;;;;12.64;100.00;101428.03;5058239;28;20032;-65
2022/10/25 08:53:57;;;;;;;10.30;5.53;;;;;;;12.70;100.00;101435.16;5065817;28;20055;-65
2022/10/25 08:56:24;;;;;;;10.15;4.82;;;;;;;12.69;100.00;101429.06;5067498;28;20093;-65
2022/10/25 08:59:00;;;;;;;9.82;5.20;;;;;;;12.70;100.00;101425.63;5067249;28;20128;-65
2022/10/25 09:01:39;;;;;;;7.60;4.28;;;;;;;12.73;100.00;101433.53;5067246;28;20107;-65
2022/10/25 09:04:04;;;;;;;10.88;4.78;;;;;;;12.77;100.00;101433.63;5053666;28;20127;-65
2022/10/25 09:06:47;;;;;;;11.60;4.95;;;;;;;12.79;100.00;101437.16;5067839;28;20056;-65
2022/10/25 09:09:33;;;;;;;10.25;6.18;;;;;;;12.84;100.00;101440.81;5067488;28;20024;-65
2022/10/25 09:12:27;;;;;;;8.73;5.20;;;;;;;12.90;100.00;101440.13;5081543;28;20027;-65
2022/10/25 09:15:08;;;;;;;11.63;5.82;;;;;;;12.97;100.00;101448.16;5055575;28;20020;-65
2022/10/25 09:17:42;;;;;;;;;;;;;;;13.07;100.00;101453.66;5066916;28;20499;-65
2022/10/25 09:20:19;;;;;;;9.70;4.30;;;;;;;13.14;100.00;101455.63;5059790;28;19999;-65
2022/10/25 09:22:53;;;;;;;9.70;4.68;;;;;;;13.23;100.00;101464.53;5063519;28;20020;-65
2022/10/25 09:25:29;;;;;;;9.68;4.32;;;;;;;13.25;100.00;101468.06;5067464;28;20031;-65
2022/10/25 09:28:00;;;;;;;10.30;4.80;;;;;;;13.28;100.00;101462.94;5052811;28;20678;-65
2022/10/25 09:30:28;;;;;;;8.35;3.72;;;;;;;13.24;100.00;101466.31;5066957;28;20066;-65
2022/10/25 09:33:00;;;;;;;8.15;4.18;;;;;;;13.26;100.00;101469.84;5053452;28;20366;-65
2022/10/25 09:35:42;;;;;;;7.28;3.63;;;;;;;13.28;100.00;101471.66;5087710;28;20089;-65
2022/10/25 09:38:21;;;;;;;8.55;3.97;;;;;;;13.29;100.00;101472.53;5072910;28;20465;-65
2022/10/25 09:40:53;;;;;;;8.20;3.50;;;;;;;13.31;100.00;101476.06;5077571;28;20035;-65
2022/10/25 09:43:33;;;;;;;10.00;3.72;;;;;;;13.31;100.00;101476.06;5080773;28;20056;-65
2022/10/25 09:46:04;;;;;;;5.88;3.25;;;;;;;13.30;100.00;101471.69;5055683;28;20032;-65
2022/10/25 09:49:07;;;;;;;5.63;3.13;;;;;;;13.35;100.00;101470.09;5064227;28;20023;-65
2022/10/25 09:52:16;;;;;;;9.38;4.63;;;;;;;13.37;100.00;101477.97;5067022;28;20131;-65
2022/10/25 09:54:50;;;;;;;10.60;4.10;;;;;;;13.38;100.00;101480.63;5031233;28;20030;-66
2022/10/25 09:57:15;;;;;;;8.98;4.05;;;;;;;13.40;100.00;101483.28;5067491;28;20048;-65
2022/10/25 09:59:41;;;;;;;9.48;3.20;;;;;;;13.38;100.00;101484.94;5074373;28;20109;-65
2022/10/25 10:02:22;;;;;;;9.82;3.67;;;;;;;13.38;100.00;101485.84;5080910;28;20024;-66
2022/10/25 10:04:47;;;;;;;12.05;3.53;;;;;;;13.38;100.00;101493.66;5067517;28;20028;-66
2022/10/25 10:07:25;;;;;;;6.82;3.00;;;;;;;13.41;100.00;101490.25;5064967;28;20447;-65
2022/10/25 10:09:55;;;;;;;9.95;3.05;;;;;;;13.40;100.00;101491.94;5077674;28;20031;-65
2022/10/25 10:12:38;;;;;;;8.00;3.10;;;;;;;13.43;100.00;101488.56;5072242;28;20365;-65
2022/10/25 10:15:19;;;;;;;7.15;3.15;;;;;;;13.46;100.00;101496.47;5062367;28;20504;-65
2022/10/25 10:17:44;;;;;;;8.32;2.92;;;;;;;13.47;100.00;101492.16;5073383;28;20024;-65
2022/10/25 10:20:16;;;;;;;8.02;3.38;;;;;;;13.48;100.00;101497.41;5073774;28;20109;-65
2022/10/25 10:22:53;;;;;;;6.18;2.88;;;;;;;13.51;100.00;101501.84;5072830;28;20126;-65
2022/10/25 10:25:23;;;;;;;10.32;3.55;;;;;;;13.51;100.00;101501.84;5064236;28;20029;-65
2022/10/25 10:27:51;;;;;;;6.43;3.08;;;;;;;13.52;100.00;101500.97;5068625;28;20081;-65
2022/10/25 10:30:28;;;;;;;8.07;3.40;;;;;;;13.54;100.00;101502.84;5065137;28;20037;-65
2022/10/25 10:32:59;;;;;;;10.07;3.60;;;;;;;13.57;100.00;101507.25;5068633;28;20036;-65
2022/10/25 10:35:27;;;;;;;12.43;3.72;;;;;;;13.59;100.00;101502.09;5094312;28;20480;-65
2022/10/25 10:37:53;;;;;;;7.65;2.65;;;;;;;13.61;100.00;101503.91;5079161;28;20032;-65
2022/10/25 10:40:18;;;;;;;8.82;2.85;;;;;;;13.60;100.00;101511.69;5093874;28;20459;-65
2022/10/25 10:42:44;;;;;;;11.32;3.42;;;;;;;13.61;100.00;101510.81;5081392;28;20099;-65
2022/10/25 10:45:17;;;;;;;6.95;2.95;;;;;;;13.60;100.00;101506.47;5073392;28;20024;-66
2022/10/25 10:47:48;;;;;;;8.15;2.70;;;;;;;13.63;100.00;101516.97;5052923;28;20075;-65
2022/10/25 10:50:20;;;;;;;9.63;3.00;;;;;;;13.64;100.00;101523.94;5056236;28;20039;-65
2022/10/25 10:52:46;;;;;;;;;;;;;;;13.65;100.00;101516.16;5063501;28;20524;-65
2022/10/25 10:55:33;;;;;;;9.07;3.28;;;;;;;13.73;100.00;101513.78;5061210;28;19999;-65
2022/10/25 10:58:20;;;;;;;7.00;2.90;;;;;;;13.77;100.00;101517.38;5055303;28;20432;-65
2022/10/25 11:00:49;;;;;;;7.13;2.05;;;;;;;13.81;100.00;101514.91;5055039;28;20053;-65
2022/10/25 11:03:39;;;;;;;5.47;2.20;;;;;;;13.88;100.00;101518.59;5056386;28;20029;-65
2022/10/25 11:06:09;;;;;;;8.35;2.78;;;;;;;13.96;100.00;101516.19;5052589;28;20151;-65
2022/10/25 11:08:35;;;;;;;5.78;2.55;;;;;;;14.03;100.00;101520.72;5066756;28;20100;-65
2022/10/25 11:11:18;;;;;;;6.65;2.90;;;;;;;14.11;100.00;101512.25;5070040;28;20544;-65
2022/10/25 11:13:51;;;;;;;8.65;2.92;;;;;;;14.19;100.00;101515.97;5056090;28;20024;-65
2022/10/25 11:16:41;;;;;;;7.55;2.80;;;;;;;14.25;100.00;101512.63;5058658;28;20017;-65
2022/10/25 11:19:24;;;;;;;9.00;3.03;;;;;;;14.29;100.00;101514.50;5058816;28;20033;-65
2022/10/25 11:21:55;;;;;;;5.72;2.35;;;;;;;14.31;100.00;101511.91;5052136;28;20029;-65
2022/10/25 11:24:42;;;;;;;8.40;2.22;;;;;;;14.35;100.00;101513.78;5059686;28;20392;-66
2022/10/25 11:27:25;;;;;;;9.27;2.65;;;;;;;14.44;100.00;101519.25;5052663;28;20043;-65